KVCT/VCT METAR and TAF weather

Enter ICAO airport designator
Station Type Date Time Source
KVCT METAR 2019/05/20 10:04 UTC NOAA

KVCT 201004Z AUTO 14011KT 5SM BR BKN010 BKN014 OVC019 26/24 A2983 RMK AO2 CIG 008V013 T02610244


Station Type Date Time Source
KVCT Decoded METAR 2019/05/20 10:04 UTC NOAA

VICTORIA REGIONAL AIRPORT, TX, United States (KVCT) 28-52N 96-56W 31M
May 20, 2019 - 06:04 AM EDT / 2019.05.20 1004 UTC
Wind: from the SE (140 degrees) at 13 MPH (11 KT):0
Visibility: 5 mile(s):0
Sky conditions: overcast
Weather: mist
Temperature: 79.0 F (26.1 C)
Dew Point: 75.9 F (24.4 C)
Relative Humidity: 90%
Pressure (altimeter): 29.83 in. Hg (1010 hPa)
ob: KVCT 201004Z AUTO 14011KT 5SM BR BKN010 BKN014 OVC019 26/24 A2983 RMK AO2 CIG 008V013 T02610244
cycle: 10

Station Type Date Time Source
KVCT TAF 2019/05/20 06:22 UTC NOAA

TAF KVCT 200520Z 2006/2106 13010KT P6SM BKN012 OVC025
FM200800 13013KT 5SM BR SCT008 BKN012 OVC025
TEMPO 2009/2013 2SM BR BKN008
FM201500 15018G25KT 6SM HZ BKN018 BKN028
FM201800 15023G30KT P6SM SCT035
FM210200 14020G28KT P6SM BKN025

Example: see airport list